createdAt,value
2016-08-17T00:00:20.943Z,0
2016-08-17T00:01:21.685Z,0
2016-08-17T00:02:21.003Z,0
2016-08-17T00:03:21.732Z,0
2016-08-17T00:04:22.497Z,0
2016-08-17T00:05:21.786Z,0
2016-08-17T00:06:21.820Z,0
2016-08-17T00:07:20.425Z,0
2016-08-17T00:08:36.771Z,0
2016-08-17T00:09:21.904Z,0
2016-08-17T00:10:21.938Z,0
2016-08-17T00:11:21.263Z,0
2016-08-17T00:12:21.298Z,0
2016-08-17T00:13:22.012Z,0
2016-08-17T00:14:36.933Z,0
2016-08-17T00:15:22.787Z,0
2016-08-17T00:16:20.680Z,0
2016-08-17T00:17:22.131Z,0
2016-08-17T00:18:22.150Z,0
2016-08-17T00:19:22.189Z,0
2016-08-17T00:20:22.217Z,0
2016-08-17T00:21:22.235Z,0
2016-08-17T00:22:21.552Z,0
2016-08-17T00:23:22.299Z,0
2016-08-17T00:24:22.327Z,0
2016-08-17T00:25:21.661Z,0
2016-08-17T00:26:21.662Z,0
2016-08-17T00:27:21.696Z,0
2016-08-17T00:28:23.152Z,0
2016-08-17T00:29:22.462Z,0
2016-08-17T00:30:21.780Z,0
2016-08-17T00:31:23.227Z,0
2016-08-17T00:32:21.834Z,0
2016-08-17T00:33:22.576Z,0
2016-08-17T00:34:21.888Z,0
2016-08-17T00:35:21.929Z,0
2016-08-17T00:36:22.668Z,0
2016-08-17T00:37:22.027Z,0
2016-08-17T00:38:22.718Z,0
2016-08-17T00:39:22.035Z,0
2016-08-17T00:40:22.799Z,0
2016-08-17T00:41:22.086Z,0
2016-08-17T00:42:22.115Z,0
2016-08-17T00:43:22.878Z,0
2016-08-17T00:44:22.906Z,0
2016-08-17T00:45:23.637Z,0
2016-08-17T00:46:22.230Z,0
2016-08-17T00:47:22.974Z,0
2016-08-17T00:48:22.287Z,0
2016-08-17T00:49:23.853Z,0
2016-08-17T00:50:23.047Z,0
2016-08-17T00:51:21.659Z,0
2016-08-17T00:52:22.395Z,0
2016-08-17T00:53:22.434Z,0
2016-08-17T00:54:22.448Z,0
2016-08-17T00:55:22.474Z,0
2016-08-17T00:56:22.504Z,0
2016-08-17T00:57:21.823Z,0
2016-08-17T00:58:22.574Z,0
2016-08-17T00:59:23.311Z,0
2016-08-17T01:00:23.332Z,0
2016-08-17T01:01:22.757Z,0
2016-08-17T01:02:21.968Z,0
2016-08-17T01:03:22.701Z,0
2016-08-17T01:04:22.730Z,0
2016-08-17T01:05:23.466Z,0
2016-08-17T01:06:22.785Z,0
2016-08-17T01:07:22.096Z,0
2016-08-17T01:08:23.546Z,0
2016-08-17T01:09:22.892Z,0
2016-08-17T01:10:22.895Z,0
2016-08-17T01:11:22.210Z,0
2016-08-17T01:12:24.377Z,0
2016-08-17T01:13:23.690Z,0
2016-08-17T01:14:23.004Z,0
2016-08-17T01:15:23.745Z,0
2016-08-17T01:16:23.083Z,0
2016-08-17T01:17:22.391Z,0
2016-08-17T01:18:23.831Z,0
2016-08-17T01:19:23.851Z,0
2016-08-17T01:20:23.883Z,0
2016-08-17T01:21:23.909Z,0
2016-08-17T01:22:23.225Z,0
2016-08-17T01:23:23.971Z,0
2016-08-17T01:24:24.014Z,0
2016-08-17T01:25:23.324Z,0
2016-08-17T01:26:23.337Z,0
2016-08-17T01:27:24.785Z,0
2016-08-17T01:28:23.387Z,0
2016-08-17T01:29:24.131Z,0
2016-08-17T01:30:22.738Z,0
2016-08-17T01:31:24.187Z,0
2016-08-17T01:32:22.803Z,0
2016-08-17T01:33:23.540Z,0
2016-08-17T01:34:22.847Z,0
2016-08-17T01:35:24.294Z,0
2016-08-17T01:36:25.037Z,0
2016-08-17T01:37:23.651Z,0
2016-08-17T01:38:23.664Z,0
2016-08-17T01:39:24.411Z,0
2016-08-17T01:40:23.738Z,0
2016-08-17T01:41:24.456Z,0
2016-08-17T01:42:24.498Z,0
2016-08-17T01:43:24.532Z,0
2016-08-17T01:44:24.544Z,0
2016-08-17T01:45:23.856Z,0
2016-08-17T01:46:24.606Z,0
2016-08-17T01:47:24.624Z,0
2016-08-17T01:48:23.237Z,0
2016-08-17T01:49:24.676Z,0
2016-08-17T01:50:24.708Z,0
2016-08-17T01:51:25.443Z,0
2016-08-17T01:52:24.762Z,0
2016-08-17T01:53:24.074Z,0
2016-08-17T01:54:24.816Z,0
2016-08-17T01:55:25.556Z,0
2016-08-17T01:56:24.172Z,0
2016-08-17T01:57:24.897Z,0
2016-08-17T01:58:25.636Z,0
2016-08-17T01:59:23.568Z,0
2016-08-17T02:00:24.976Z,0
2016-08-17T02:01:24.296Z,0
2016-08-17T02:02:25.040Z,0
2016-08-17T02:03:24.353Z,0
2016-08-17T02:04:25.097Z,0
2016-08-17T02:05:24.408Z,0
2016-08-17T02:06:24.441Z,0
2016-08-17T02:07:24.466Z,0
2016-08-17T02:08:23.781Z,0
2016-08-17T02:09:25.239Z,0
2016-08-17T02:10:24.548Z,0
2016-08-17T02:11:23.862Z,0
2016-08-17T02:12:25.316Z,0
2016-08-17T02:13:23.923Z,0
2016-08-17T02:14:24.652Z,0
2016-08-17T02:15:24.692Z,0
2016-08-17T02:16:23.994Z,0
2016-08-17T02:17:24.741Z,0
2016-08-17T02:18:24.764Z,0
2016-08-17T02:19:25.543Z,0
2016-08-17T02:20:25.529Z,0
2016-08-17T02:21:24.845Z,0
2016-08-17T02:22:24.867Z,0
2016-08-17T02:23:25.609Z,0
2016-08-17T02:24:24.942Z,0
2016-08-17T02:25:25.664Z,0
2016-08-17T02:26:25.694Z,0
2016-08-17T02:27:25.007Z,0
2016-08-17T02:28:24.327Z,0
2016-08-17T02:29:24.352Z,0
2016-08-17T02:30:25.796Z,0
2016-08-17T02:31:25.115Z,0
2016-08-17T02:32:24.453Z,0
2016-08-17T02:33:25.176Z,0
2016-08-17T02:34:25.204Z,0
2016-08-17T02:35:25.228Z,0
2016-08-17T02:36:26.681Z,0
2016-08-17T02:37:25.289Z,0
2016-08-17T02:38:25.310Z,0
2016-08-17T02:39:26.045Z,0
2016-08-17T02:40:26.080Z,0
2016-08-17T02:41:25.387Z,0
2016-08-17T02:42:25.417Z,0
2016-08-17T02:43:25.463Z,0
2016-08-17T02:44:25.497Z,0
2016-08-17T02:45:25.503Z,0
2016-08-17T02:46:24.813Z,0
2016-08-17T02:47:26.975Z,0
2016-08-17T02:48:26.291Z,0
2016-08-17T02:49:26.318Z,0
2016-08-17T02:50:25.639Z,0
2016-08-17T02:51:26.405Z,0
2016-08-17T02:52:26.401Z,0
2016-08-17T02:53:26.430Z,0
2016-08-17T02:54:26.473Z,0
2016-08-17T02:55:25.083Z,0
2016-08-17T02:56:25.104Z,0
2016-08-17T02:57:25.837Z,0
2016-08-17T02:58:26.564Z,0
2016-08-17T02:59:26.623Z,0
2016-08-17T03:00:26.642Z,0
2016-08-17T03:01:25.937Z,0
2016-08-17T03:02:26.684Z,0
2016-08-17T03:03:25.989Z,0
2016-08-17T03:04:26.015Z,0
2016-08-17T03:05:26.044Z,0
2016-08-17T03:06:26.784Z,0
2016-08-17T03:07:26.100Z,0
2016-08-17T03:08:26.137Z,0
2016-08-17T03:09:26.156Z,0
2016-08-17T03:10:26.902Z,0
2016-08-17T03:11:26.928Z,0
2016-08-17T03:12:26.232Z,0
2016-08-17T03:13:26.968Z,0
2016-08-17T03:14:26.996Z,0
2016-08-17T03:15:26.330Z,0
2016-08-17T03:16:27.060Z,0
2016-08-17T03:17:26.374Z,0
2016-08-17T03:18:26.394Z,0
2016-08-17T03:19:27.130Z,0
2016-08-17T03:20:27.161Z,0
2016-08-17T03:21:25.765Z,0
2016-08-17T03:22:27.215Z,0
2016-08-17T03:23:27.274Z,0
2016-08-17T03:24:27.270Z,0
2016-08-17T03:25:27.298Z,0
2016-08-17T03:26:28.033Z,0
2016-08-17T03:27:26.639Z,0
2016-08-17T03:28:27.375Z,0
2016-08-17T03:29:27.398Z,0
2016-08-17T03:30:27.434Z,0
2016-08-17T03:31:26.037Z,0
2016-08-17T03:32:26.784Z,0
2016-08-17T03:33:27.511Z,0
2016-08-17T03:34:27.536Z,0
2016-08-17T03:35:26.856Z,0
2016-08-17T03:36:26.892Z,0
2016-08-17T03:37:26.918Z,0
2016-08-17T03:38:26.226Z,0
2016-08-17T03:39:26.317Z,0
2016-08-17T03:40:27.720Z,0
2016-08-17T03:41:27.730Z,0
2016-08-17T03:42:27.754Z,0
2016-08-17T03:43:27.780Z,0
2016-08-17T03:44:26.408Z,0
2016-08-17T03:45:27.829Z,0
2016-08-17T03:46:27.862Z,0
2016-08-17T03:47:28.618Z,0
2016-08-17T03:48:27.207Z,0
2016-08-17T03:49:27.944Z,0
2016-08-17T03:50:26.556Z,0
2016-08-17T03:51:26.575Z,0
2016-08-17T03:52:27.312Z,0
2016-08-17T03:53:28.049Z,0
2016-08-17T03:54:27.376Z,0
2016-08-17T03:55:26.683Z,0
2016-08-17T03:56:28.135Z,0
2016-08-17T03:57:28.162Z,0
2016-08-17T03:58:28.181Z,0
2016-08-17T03:59:27.504Z,0
2016-08-17T04:00:28.235Z,0
2016-08-17T04:01:27.558Z,0
2016-08-17T04:02:28.296Z,0
2016-08-17T04:03:29.028Z,0
2016-08-17T04:04:27.644Z,0
2016-08-17T04:05:29.077Z,0
2016-08-17T04:06:26.980Z,0
2016-08-17T04:07:27.714Z,0
2016-08-17T04:08:28.452Z,0
2016-08-17T04:09:27.055Z,0
2016-08-17T04:10:27.793Z,0
2016-08-17T04:11:27.824Z,0
2016-08-17T04:12:27.856Z,0
2016-08-17T04:13:27.162Z,4
2016-08-17T04:14:28.615Z,0
2016-08-17T04:15:28.647Z,0
2016-08-17T04:16:27.949Z,0
2016-08-17T04:17:27.983Z,0
2016-08-17T04:18:28.030Z,0
2016-08-17T04:19:28.757Z,0
2016-08-17T04:20:27.358Z,4
2016-08-17T04:21:28.788Z,0
2016-08-17T04:22:28.113Z,0
2016-08-17T04:23:27.434Z,4
2016-08-17T04:24:28.884Z,0
2016-08-17T04:25:27.482Z,0
2016-08-17T04:26:28.942Z,4
2016-08-17T04:27:28.957Z,0
2016-08-17T04:28:29.009Z,4
2016-08-17T04:29:28.338Z,0
2016-08-17T04:30:28.326Z,4
2016-08-17T04:31:27.643Z,4
2016-08-17T04:32:28.380Z,4
2016-08-17T04:33:28.403Z,4
2016-08-17T04:34:27.727Z,4
2016-08-17T04:35:28.457Z,4
2016-08-17T04:36:28.507Z,4
2016-08-17T04:37:27.800Z,4
2016-08-17T04:38:29.973Z,4
2016-08-17T04:39:28.568Z,4
2016-08-17T04:40:28.588Z,0
2016-08-17T04:41:27.913Z,0
2016-08-17T04:42:28.639Z,4
2016-08-17T04:43:29.380Z,4
2016-08-17T04:44:28.727Z,4
2016-08-17T04:45:29.436Z,4
2016-08-17T04:46:28.038Z,4
2016-08-17T04:47:28.775Z,8
2016-08-17T04:48:28.807Z,4
2016-08-17T04:49:28.828Z,4
2016-08-17T04:50:29.570Z,4
2016-08-17T04:51:28.884Z,4
2016-08-17T04:52:29.623Z,8
2016-08-17T04:53:28.234Z,4
2016-08-17T04:54:30.396Z,4
2016-08-17T04:55:29.695Z,4
2016-08-17T04:56:29.013Z,4
2016-08-17T04:57:29.039Z,8
2016-08-17T04:58:28.357Z,8
2016-08-17T04:59:29.093Z,8
2016-08-17T05:00:29.117Z,8
2016-08-17T05:01:30.570Z,8
2016-08-17T05:02:29.877Z,8
2016-08-17T05:03:29.913Z,8
2016-08-17T05:04:29.225Z,8
2016-08-17T05:05:29.252Z,8
2016-08-17T05:06:29.278Z,8
2016-08-17T05:07:29.302Z,4
2016-08-17T05:08:30.039Z,8
2016-08-17T05:09:29.382Z,8
2016-08-17T05:10:29.387Z,8
2016-08-17T05:11:29.426Z,8
2016-08-17T05:12:30.146Z,8
2016-08-17T05:13:28.755Z,8
2016-08-17T05:14:29.488Z,8
2016-08-17T05:15:30.247Z,8
2016-08-17T05:16:30.255Z,8
2016-08-17T05:17:29.570Z,8
2016-08-17T05:18:29.592Z,8
2016-08-17T05:19:31.039Z,8
2016-08-17T05:20:29.647Z,8
2016-08-17T05:21:29.679Z,8
2016-08-17T05:22:31.147Z,12
2016-08-17T05:23:29.727Z,12
2016-08-17T05:24:29.768Z,12
2016-08-17T05:25:29.780Z,12
2016-08-17T05:26:29.839Z,12
2016-08-17T05:27:29.134Z,12
2016-08-17T05:28:30.567Z,16
2016-08-17T05:29:30.594Z,12
2016-08-17T05:30:29.911Z,12
2016-08-17T05:31:29.938Z,12
2016-08-17T05:32:29.249Z,12
2016-08-17T05:33:29.997Z,12
2016-08-17T05:34:30.015Z,16
2016-08-17T05:35:30.755Z,12
2016-08-17T05:36:30.070Z,16
2016-08-17T05:37:29.378Z,16
2016-08-17T05:38:30.134Z,12
2016-08-17T05:39:30.859Z,16
2016-08-17T05:40:30.899Z,16
2016-08-17T05:41:30.201Z,16
2016-08-17T05:42:29.515Z,20
2016-08-17T05:43:30.965Z,20
2016-08-17T05:44:30.279Z,20
2016-08-17T05:45:30.304Z,20
2016-08-17T05:46:31.041Z,20
2016-08-17T05:47:30.354Z,20
2016-08-17T05:48:30.408Z,20
2016-08-17T05:49:31.124Z,20
2016-08-17T05:50:31.869Z,24
2016-08-17T05:51:30.466Z,24
2016-08-17T05:52:31.210Z,24
2016-08-17T05:53:30.518Z,24
2016-08-17T05:54:29.836Z,24
2016-08-17T05:55:31.996Z,24
2016-08-17T05:56:31.318Z,24
2016-08-17T05:57:32.040Z,24
2016-08-17T05:58:31.363Z,28
2016-08-17T05:59:31.383Z,28
2016-08-17T06:00:29.989Z,24
2016-08-17T06:01:30.737Z,24
2016-08-17T06:02:30.056Z,28
2016-08-17T06:03:31.493Z,28
2016-08-17T06:04:30.839Z,32
2016-08-17T06:05:30.124Z,28
2016-08-17T06:06:30.154Z,28
2016-08-17T06:07:30.891Z,32
2016-08-17T06:08:31.623Z,28
2016-08-17T06:09:30.938Z,32
2016-08-17T06:10:31.677Z,32
2016-08-17T06:11:31.698Z,32
2016-08-17T06:12:31.047Z,32
2016-08-17T06:13:31.068Z,32
2016-08-17T06:14:31.790Z,32
2016-08-17T06:15:30.391Z,36
2016-08-17T06:16:31.835Z,36
2016-08-17T06:17:31.159Z,40
2016-08-17T06:18:31.190Z,36
2016-08-17T06:19:31.911Z,32
2016-08-17T06:20:31.941Z,32
2016-08-17T06:21:31.260Z,36
2016-08-17T06:22:32.704Z,36
2016-08-17T06:23:32.029Z,36
2016-08-17T06:24:32.051Z,36
2016-08-17T06:25:32.795Z,36
2016-08-17T06:26:31.393Z,40
2016-08-17T06:27:32.128Z,40
2016-08-17T06:28:31.444Z,36
2016-08-17T06:29:31.501Z,40
2016-08-17T06:30:32.214Z,36
2016-08-17T06:31:32.961Z,36
2016-08-17T06:32:32.256Z,36
2016-08-17T06:33:30.864Z,36
2016-08-17T06:34:32.324Z,32
2016-08-17T06:35:31.629Z,36
2016-08-17T06:36:31.666Z,36
2016-08-17T06:37:32.390Z,36
2016-08-17T06:38:33.122Z,36
2016-08-17T06:39:31.734Z,36
2016-08-17T06:40:31.759Z,36
2016-08-17T06:41:31.789Z,40
2016-08-17T06:42:31.817Z,36
2016-08-17T06:43:31.844Z,36
2016-08-17T06:44:31.869Z,36
2016-08-17T06:45:31.898Z,36
2016-08-17T06:46:31.921Z,36
2016-08-17T06:47:32.659Z,40
2016-08-17T06:48:31.266Z,40
2016-08-17T06:49:31.290Z,44
2016-08-17T06:50:32.042Z,48
2016-08-17T06:51:32.767Z,48
2016-08-17T06:52:32.790Z,52
2016-08-17T06:53:32.105Z,52
2016-08-17T06:54:32.134Z,52
2016-08-17T06:55:32.161Z,52
2016-08-17T06:56:31.480Z,52
2016-08-17T06:57:32.211Z,56
2016-08-17T06:58:32.974Z,56
2016-08-17T06:59:31.568Z,64
2016-08-17T07:00:32.295Z,80
2016-08-17T07:01:33.035Z,68
2016-08-17T07:02:32.349Z,64
2016-08-17T07:03:32.367Z,68
2016-08-17T07:04:33.111Z,68
2016-08-17T07:05:32.424Z,68
2016-08-17T07:06:32.455Z,48
2016-08-17T07:07:31.782Z,52
2016-08-17T07:08:32.524Z,56
2016-08-17T07:09:32.537Z,60
2016-08-17T07:10:33.291Z,68
2016-08-17T07:11:33.299Z,124
2016-08-17T07:12:31.905Z,92
2016-08-17T07:13:32.641Z,100
2016-08-17T07:14:33.408Z,92
2016-08-17T07:15:32.697Z,96
2016-08-17T07:16:33.431Z,112
2016-08-17T07:17:32.751Z,96
2016-08-17T07:18:34.205Z,92
2016-08-17T07:19:32.802Z,188
2016-08-17T07:20:34.262Z,116
2016-08-17T07:21:32.856Z,88
2016-08-17T07:22:33.600Z,92
2016-08-17T07:23:32.923Z,88
2016-08-17T07:24:33.655Z,88
2016-08-17T07:25:32.976Z,96
2016-08-17T07:26:32.992Z,128
2016-08-17T07:27:32.321Z,96
2016-08-17T07:28:33.048Z,76
2016-08-17T07:29:32.363Z,76
2016-08-17T07:30:33.101Z,76
2016-08-17T07:31:33.846Z,72
2016-08-17T07:32:33.869Z,72
2016-08-17T07:33:32.476Z,68
2016-08-17T07:34:33.237Z,72
2016-08-17T07:35:33.237Z,80
2016-08-17T07:36:32.612Z,84
2016-08-17T07:37:33.292Z,84
2016-08-17T07:38:34.057Z,84
2016-08-17T07:39:34.066Z,88
2016-08-17T07:40:33.379Z,84
2016-08-17T07:41:33.402Z,80
2016-08-17T07:42:33.429Z,84
2016-08-17T07:43:33.462Z,88
2016-08-17T07:44:32.788Z,92
2016-08-17T07:45:34.231Z,96
2016-08-17T07:46:33.548Z,116
2016-08-17T07:47:34.279Z,128
2016-08-17T07:48:33.593Z,132
2016-08-17T07:49:34.339Z,112
2016-08-17T07:50:32.953Z,112
2016-08-17T07:51:33.690Z,112
2016-08-17T07:52:33.715Z,116
2016-08-17T07:53:33.744Z,124
2016-08-17T07:54:33.764Z,136
2016-08-17T07:55:34.499Z,132
2016-08-17T07:56:34.527Z,128
2016-08-17T07:57:33.840Z,200
2016-08-17T07:58:34.588Z,136
2016-08-17T07:59:33.893Z,132
2016-08-17T08:00:33.923Z,176
2016-08-17T08:01:33.964Z,128
2016-08-17T08:02:34.026Z,108
2016-08-17T08:03:34.015Z,96
2016-08-17T08:04:34.751Z,116
2016-08-17T08:05:35.482Z,108
2016-08-17T08:06:34.089Z,128
2016-08-17T08:07:34.825Z,148
2016-08-17T08:08:34.858Z,136
2016-08-17T08:09:34.882Z,196
2016-08-17T08:10:34.204Z,224
2016-08-17T08:11:35.641Z,224
2016-08-17T08:12:34.261Z,308
2016-08-17T08:13:34.995Z,236
2016-08-17T08:14:35.021Z,248
2016-08-17T08:15:34.336Z,304
2016-08-17T08:16:35.789Z,236
2016-08-17T08:17:35.123Z,204
2016-08-17T08:18:34.419Z,168
2016-08-17T08:19:33.743Z,152
2016-08-17T08:20:35.185Z,108
2016-08-17T08:21:33.809Z,100
2016-08-17T08:22:34.538Z,168
2016-08-17T08:23:35.273Z,176
2016-08-17T08:24:34.584Z,180
2016-08-17T08:25:35.326Z,128
2016-08-17T08:26:36.200Z,128
2016-08-17T08:27:35.377Z,160
2016-08-17T08:28:35.409Z,180
2016-08-17T08:29:35.450Z,176
2016-08-17T08:30:36.171Z,184
2016-08-17T08:31:35.492Z,208
2016-08-17T08:32:34.813Z,272
2016-08-17T08:33:34.841Z,256
2016-08-17T08:34:36.285Z,268
2016-08-17T08:35:34.185Z,276
2016-08-17T08:36:34.263Z,288
2016-08-17T08:37:35.662Z,240
2016-08-17T08:38:34.982Z,268
2016-08-17T08:39:35.007Z,280
2016-08-17T08:40:35.765Z,304
2016-08-17T08:41:35.774Z,304
2016-08-17T08:42:35.088Z,304
2016-08-17T08:43:34.408Z,320
2016-08-17T08:44:35.163Z,324
2016-08-17T08:45:36.591Z,328
2016-08-17T08:46:35.207Z,252
2016-08-17T08:47:34.522Z,276
2016-08-17T08:48:35.971Z,248
2016-08-17T08:49:35.311Z,220
2016-08-17T08:50:35.319Z,340
2016-08-17T08:51:34.638Z,256
2016-08-17T08:52:34.666Z,196
2016-08-17T08:53:35.403Z,148
2016-08-17T08:54:35.431Z,112
2016-08-17T08:55:36.185Z,108
2016-08-17T08:56:35.491Z,104
2016-08-17T08:57:36.225Z,96
2016-08-17T08:58:36.250Z,108
2016-08-17T08:59:35.577Z,176
2016-08-17T09:00:34.904Z,204
2016-08-17T09:01:36.341Z,176
2016-08-17T09:02:35.665Z,168
2016-08-17T09:03:36.397Z,176
2016-08-17T09:04:36.434Z,188
2016-08-17T09:05:36.544Z,372
2016-08-17T09:06:35.771Z,280
2016-08-17T09:07:36.562Z,264
2016-08-17T09:08:36.548Z,268
2016-08-17T09:09:35.895Z,188
2016-08-17T09:10:36.596Z,180
2016-08-17T09:11:35.920Z,156
2016-08-17T09:12:35.234Z,348
2016-08-17T09:13:35.976Z,184
2016-08-17T09:14:37.445Z,360
2016-08-17T09:15:36.750Z,228
2016-08-17T09:16:36.770Z,224
2016-08-17T09:17:37.511Z,472
2016-08-17T09:18:36.118Z,272
2016-08-17T09:19:36.874Z,300
2016-08-17T09:20:35.472Z,252
2016-08-17T09:21:36.203Z,268
2016-08-17T09:22:36.956Z,332
2016-08-17T09:23:36.971Z,316
2016-08-17T09:24:36.309Z,292
2016-08-17T09:25:35.606Z,176
2016-08-17T09:26:36.350Z,200
2016-08-17T09:27:37.092Z,176
2016-08-17T09:28:37.114Z,192
2016-08-17T09:29:35.736Z,212
2016-08-17T09:30:37.886Z,212
2016-08-17T09:31:37.202Z,188
2016-08-17T09:32:37.237Z,316
2016-08-17T09:33:36.560Z,368
2016-08-17T09:34:36.584Z,316
2016-08-17T09:35:36.606Z,172
2016-08-17T09:36:35.953Z,240
2016-08-17T09:37:37.374Z,280
2016-08-17T09:38:36.700Z,288
2016-08-17T09:39:36.723Z,348
2016-08-17T09:40:37.482Z,244
2016-08-17T09:41:37.493Z,344
2016-08-17T09:42:36.854Z,336
2016-08-17T09:43:36.845Z,332
2016-08-17T09:44:36.872Z,328
2016-08-17T09:45:36.904Z,328
2016-08-17T09:46:36.939Z,316
2016-08-17T09:47:38.463Z,172
2016-08-17T09:48:37.704Z,236
2016-08-17T09:49:37.019Z,236
2016-08-17T09:50:36.345Z,216
2016-08-17T09:51:38.508Z,212
2016-08-17T09:52:37.110Z,260
2016-08-17T09:53:37.847Z,308
2016-08-17T09:54:36.458Z,148
2016-08-17T09:55:36.484Z,304
2016-08-17T09:56:37.227Z,276
2016-08-17T09:57:37.291Z,188
2016-08-17T09:58:38.006Z,172
2016-08-17T09:59:37.313Z,208
2016-08-17T10:00:38.766Z,268
2016-08-17T10:01:38.086Z,304
2016-08-17T10:02:38.129Z,304
2016-08-17T10:03:37.433Z,284
2016-08-17T10:04:38.203Z,272
2016-08-17T10:05:36.792Z,304
2016-08-17T10:06:37.528Z,312
2016-08-17T10:07:38.976Z,312
2016-08-17T10:08:38.305Z,196
2016-08-17T10:09:38.324Z,224
2016-08-17T10:10:36.932Z,216
2016-08-17T10:11:38.379Z,236
2016-08-17T10:12:39.130Z,340
2016-08-17T10:13:37.739Z,284
2016-08-17T10:14:37.783Z,332
2016-08-17T10:15:37.086Z,288
2016-08-17T10:16:37.829Z,172
2016-08-17T10:17:37.144Z,316
2016-08-17T10:18:39.301Z,272
2016-08-17T10:19:38.624Z,292
2016-08-17T10:20:37.946Z,296
2016-08-17T10:21:38.693Z,244
2016-08-17T10:22:38.718Z,332
2016-08-17T10:23:38.743Z,288
2016-08-17T10:24:39.498Z,280
2016-08-17T10:25:38.812Z,260
2016-08-17T10:26:38.128Z,272
2016-08-17T10:27:38.865Z,416
2016-08-17T10:28:37.481Z,532
2016-08-17T10:29:39.641Z,468
2016-08-17T10:30:37.534Z,412
2016-08-17T10:31:38.309Z,288
2016-08-17T10:32:38.313Z,224
2016-08-17T10:33:38.334Z,196
2016-08-17T10:34:39.079Z,160
2016-08-17T10:35:39.114Z,208
2016-08-17T10:36:38.431Z,240
2016-08-17T10:37:38.463Z,228
2016-08-17T10:38:38.510Z,288
2016-08-17T10:39:39.949Z,320
2016-08-17T10:40:39.978Z,484
2016-08-17T10:41:38.580Z,572
2016-08-17T10:42:39.325Z,572
2016-08-17T10:43:40.077Z,404
2016-08-17T10:44:38.673Z,308
2016-08-17T10:45:38.002Z,264
2016-08-17T10:46:39.456Z,260
2016-08-17T10:47:39.477Z,256
2016-08-17T10:48:39.505Z,116
2016-08-17T10:49:38.124Z,248
2016-08-17T10:50:38.158Z,248
2016-08-17T10:51:38.887Z,240
2016-08-17T10:52:38.210Z,248
2016-08-17T10:53:38.949Z,248
2016-08-17T10:54:39.719Z,248
2016-08-17T10:55:39.727Z,252
2016-08-17T10:56:39.762Z,252
2016-08-17T10:57:39.072Z,252
2016-08-17T10:58:39.129Z,196
2016-08-17T10:59:38.426Z,140
2016-08-17T11:00:39.879Z,168
2016-08-17T11:01:39.908Z,156
2016-08-17T11:02:39.240Z,280
2016-08-17T11:03:39.266Z,272
2016-08-17T11:04:38.603Z,276
2016-08-17T11:05:38.619Z,112
2016-08-17T11:06:40.075Z,288
2016-08-17T11:07:40.087Z,128
2016-08-17T11:08:39.428Z,88
2016-08-17T11:09:39.455Z,84
2016-08-17T11:10:39.475Z,84
2016-08-17T11:11:39.521Z,92
2016-08-17T11:12:39.547Z,108
2016-08-17T11:13:38.858Z,256
2016-08-17T11:14:40.312Z,104
2016-08-17T11:15:39.626Z,96
2016-08-17T11:16:39.661Z,100
2016-08-17T11:17:40.403Z,96
2016-08-17T11:18:39.013Z,164
2016-08-17T11:19:39.757Z,92
2016-08-17T11:20:39.801Z,92
2016-08-17T11:21:39.821Z,92
2016-08-17T11:22:39.841Z,88
2016-08-17T11:23:41.296Z,88
2016-08-17T11:24:39.920Z,136
2016-08-17T11:25:39.228Z,244
2016-08-17T11:26:40.679Z,248
2016-08-17T11:27:40.731Z,240
2016-08-17T11:28:40.735Z,244
2016-08-17T11:29:40.062Z,236
2016-08-17T11:30:39.381Z,228
2016-08-17T11:31:40.122Z,232
2016-08-17T11:32:40.164Z,236
2016-08-17T11:33:40.894Z,140
2016-08-17T11:34:40.222Z,236
2016-08-17T11:35:40.957Z,236
2016-08-17T11:36:39.564Z,240
2016-08-17T11:37:41.013Z,232
2016-08-17T11:38:41.059Z,224
2016-08-17T11:39:40.371Z,224
2016-08-17T11:40:41.826Z,228
2016-08-17T11:41:40.431Z,232
2016-08-17T11:42:40.467Z,236
2016-08-17T11:43:41.201Z,236
2016-08-17T11:44:41.254Z,240
2016-08-17T11:45:40.564Z,244
2016-08-17T11:46:41.303Z,248
2016-08-17T11:47:39.898Z,244
2016-08-17T11:48:41.358Z,240
2016-08-17T11:49:40.684Z,240
2016-08-17T11:50:40.720Z,236
2016-08-17T11:51:41.452Z,232
2016-08-17T11:52:41.483Z,224
2016-08-17T11:53:40.093Z,228
2016-08-17T11:54:40.833Z,224
2016-08-17T11:55:42.285Z,224
2016-08-17T11:56:40.197Z,224
2016-08-17T11:57:40.214Z,224
2016-08-17T11:58:40.955Z,224
2016-08-17T11:59:40.991Z,224
2016-08-17T12:00:42.455Z,224
2016-08-17T12:01:41.761Z,228
2016-08-17T12:02:42.508Z,224
2016-08-17T12:03:41.113Z,224
2016-08-17T12:04:41.853Z,228
2016-08-17T12:05:41.176Z,224
2016-08-17T12:06:41.204Z,224
2016-08-17T12:07:41.242Z,224
2016-08-17T12:08:41.988Z,228
2016-08-17T12:09:41.301Z,224
2016-08-17T12:10:41.367Z,224
2016-08-17T12:11:42.791Z,220
2016-08-17T12:12:42.112Z,220
2016-08-17T12:13:40.712Z,224
2016-08-17T12:14:41.460Z,220
2016-08-17T12:15:41.501Z,220
2016-08-17T12:16:42.240Z,224
2016-08-17T12:17:42.275Z,224
2016-08-17T12:18:42.297Z,220
2016-08-17T12:19:42.326Z,212
2016-08-17T12:20:41.664Z,68
2016-08-17T12:21:41.681Z,68
2016-08-17T12:22:41.722Z,88
2016-08-17T12:23:41.744Z,72
2016-08-17T12:24:41.075Z,164
2016-08-17T12:25:41.811Z,204
2016-08-17T12:26:41.135Z,72
2016-08-17T12:27:42.583Z,64
2016-08-17T12:28:41.903Z,56
2016-08-17T12:29:42.670Z,56
2016-08-17T12:30:42.678Z,56
2016-08-17T12:31:42.714Z,64
2016-08-17T12:32:42.035Z,148
2016-08-17T12:33:42.782Z,212
2016-08-17T12:34:42.097Z,216
2016-08-17T12:35:43.544Z,216
2016-08-17T12:36:42.156Z,184
2016-08-17T12:37:42.905Z,68
2016-08-17T12:38:43.640Z,64
2016-08-17T12:39:42.959Z,64
2016-08-17T12:40:43.706Z,200
2016-08-17T12:41:42.314Z,208
2016-08-17T12:42:43.781Z,212
2016-08-17T12:43:43.795Z,196
2016-08-17T12:44:43.114Z,204
2016-08-17T12:45:42.440Z,216
2016-08-17T12:46:42.471Z,212
2016-08-17T12:47:44.219Z,204
2016-08-17T12:48:42.538Z,208
2016-08-17T12:49:43.300Z,200
2016-08-17T12:50:43.318Z,196
2016-08-17T12:51:43.342Z,200
2016-08-17T12:52:42.667Z,208
2016-08-17T12:53:44.106Z,204
2016-08-17T12:54:43.439Z,208
2016-08-17T12:55:42.749Z,204
2016-08-17T12:56:42.074Z,196
2016-08-17T12:57:43.534Z,104
2016-08-17T12:58:43.579Z,200
2016-08-17T12:59:42.172Z,196
2016-08-17T13:00:44.331Z,192
2016-08-17T13:01:42.944Z,192
2016-08-17T13:02:42.982Z,192
2016-08-17T13:03:43.049Z,192
2016-08-17T13:04:43.775Z,196
2016-08-17T13:05:43.792Z,192
2016-08-17T13:06:43.095Z,188
2016-08-17T13:07:43.851Z,184
2016-08-17T13:08:44.584Z,188
2016-08-17T13:09:42.491Z,188
2016-08-17T13:10:43.944Z,192
2016-08-17T13:11:43.963Z,192
2016-08-17T13:12:43.291Z,188
2016-08-17T13:13:43.320Z,184
2016-08-17T13:14:44.800Z,188
2016-08-17T13:15:44.097Z,184
2016-08-17T13:16:43.418Z,56
2016-08-17T13:17:44.157Z,128
2016-08-17T13:18:44.202Z,188
2016-08-17T13:19:44.226Z,188
2016-08-17T13:20:43.543Z,188
2016-08-17T13:21:43.577Z,188
2016-08-17T13:22:43.618Z,184
2016-08-17T13:23:44.396Z,188
2016-08-17T13:24:44.458Z,184
2016-08-17T13:25:43.707Z,180
2016-08-17T13:26:44.443Z,180
2016-08-17T13:27:44.475Z,172
2016-08-17T13:28:45.235Z,172
2016-08-17T13:29:43.823Z,176
2016-08-17T13:30:43.156Z,152
2016-08-17T13:31:44.608Z,116
2016-08-17T13:32:43.922Z,116
2016-08-17T13:33:44.673Z,168
2016-08-17T13:34:44.003Z,168
2016-08-17T13:35:44.017Z,168
2016-08-17T13:36:44.812Z,164
2016-08-17T13:37:44.794Z,164
2016-08-17T13:38:44.828Z,164
2016-08-17T13:39:45.570Z,160
2016-08-17T13:40:44.188Z,152
2016-08-17T13:41:44.212Z,148
2016-08-17T13:42:43.552Z,148
2016-08-17T13:43:44.278Z,148
2016-08-17T13:44:45.016Z,152
2016-08-17T13:45:45.054Z,148
2016-08-17T13:46:44.371Z,144
2016-08-17T13:47:45.123Z,148
2016-08-17T13:48:43.723Z,140
2016-08-17T13:49:45.193Z,56
2016-08-17T13:50:43.788Z,52
2016-08-17T13:51:44.529Z,44
2016-08-17T13:52:45.266Z,136
2016-08-17T13:53:43.889Z,60
2016-08-17T13:54:44.625Z,140
2016-08-17T13:55:44.655Z,64
2016-08-17T13:56:44.698Z,140
2016-08-17T13:57:46.139Z,140
2016-08-17T13:58:44.041Z,136
2016-08-17T13:59:44.788Z,136
2016-08-17T14:00:44.817Z,140
2016-08-17T14:01:45.559Z,100
2016-08-17T14:02:45.595Z,136
2016-08-17T14:03:44.200Z,124
2016-08-17T14:04:45.657Z,92
2016-08-17T14:05:45.699Z,52
2016-08-17T14:06:45.012Z,44
2016-08-17T14:07:45.749Z,44
2016-08-17T14:08:45.070Z,48
2016-08-17T14:09:45.104Z,116
2016-08-17T14:10:44.423Z,104
2016-08-17T14:11:45.170Z,124
2016-08-17T14:12:45.926Z,124
2016-08-17T14:13:45.941Z,128
2016-08-17T14:14:46.682Z,124